| Ora | Descriere | Temp | Se simte | Precipitatii | Umiditate | Vant |
|---|---|---|---|---|---|---|
| 00:00 | Senin | 14.5° | 13.7° | 0% | 61% | SW 12.6 KM/H |
| 01:00 | Senin | 13.3° | 13.2° | 0% | 70% | WSW 6.5 KM/H |
| 02:00 | Senin | 12.7° | 12.7° | 0% | 75% | SW 2.5 KM/H |
| 03:00 | Senin | 12.7° | 13.2° | 0% | 76% | SSW 3.6 KM/H |
| 04:00 | Senin | 12.9° | 13° | 0% | 75% | SSW 5.4 KM/H |
| 05:00 | 12.8° | 12.2° | 0% | 77% | SSW 8.3 KM/H | |
| 06:00 | 12.5° | 11.9° | 0% | 79% | SSW 8.6 KM/H | |
| 07:00 | 12.7° | 12° | 0% | 80% | S 9 KM/H | |
| 08:00 | Senin | 14.7° | 14.3° | 0% | 75% | S 9.7 KM/H |
| 09:00 | Senin | 16.9° | 16.9° | 0% | 66% | S 13 KM/H |
| 10:00 | Senin | 18.7° | 18.7° | 0% | 59% | S 14 KM/H |
| 11:00 | Senin | 20.3° | 20.3° | 0% | 54% | SSW 14 KM/H |
| 12:00 | 21.5° | 21.5° | 0% | 47% | SSW 12.2 KM/H | |
| 13:00 | 22.1° | 24.3° | 0% | 47% | SSW 13.3 KM/H | |
| 14:00 | Senin | 22.6° | 24.5° | 0% | 47% | SSW 14.4 KM/H |
| 15:00 | Senin | 23.4° | 24.8° | 0% | 46% | SSW 14.8 KM/H |
| 16:00 | Senin | 23.9° | 24.9° | 0% | 44% | SSW 13.7 KM/H |
| 17:00 | Senin | 24.3° | 25.1° | 0% | 43% | SSW 13 KM/H |
| 18:00 | Senin | 24.1° | 25° | 0% | 44% | SSW 12.6 KM/H |
| 19:00 | Senin | 23° | 24.8° | 0% | 54% | S 9.7 KM/H |
| 20:00 | Senin | 23.2° | 20.4° | 0% | 44% | SSE 9.7 KM/H |
| 21:00 | Senin | 18.2° | 18.2° | 0% | 63% | SSE 10.4 KM/H |
| 22:00 | Senin | 17.3° | 17.3° | 0% | 63% | SE 10.8 KM/H |
| 23:00 | Senin | 16.6° | 16.6° | 0% | 64% | SSE 11.5 KM/H |